createdAt,value
2019-01-11T19:01:07.567Z,464.77
2019-01-11T19:03:45.369Z,682.30
2019-01-11T19:07:29.234Z,444.40
2019-01-11T19:09:58.888Z,761.83
2019-01-11T19:17:36.745Z,589.30
2019-01-11T19:20:43.569Z,947.93
2019-01-11T19:24:10.378Z,707.77
2019-01-11T19:27:20.557Z,738.63
2019-01-11T19:30:40.916Z,1180.40
2019-01-11T19:34:21.871Z,953.90
2019-01-11T19:37:09.903Z,848.20
2019-01-11T19:40:29.392Z,949.13
2019-01-11T19:43:19.311Z,848.63
2019-01-11T19:45:55.687Z,718.70
2019-01-11T19:48:52.368Z,825.97
2019-01-11T19:55:41.267Z,912.37
2019-01-11T19:59:24.117Z,832.30
2019-01-11T20:02:01.268Z,782.80
2019-01-11T20:05:19.346Z,894.97
2019-01-11T20:08:40.489Z,945.80
2019-01-11T20:18:18.183Z,971.77
2019-01-11T20:21:12.818Z,644.17
2019-01-11T20:24:17.596Z,849.60
2019-01-11T20:27:16.736Z,998.33
2019-01-11T20:30:11.210Z,1045.03
2019-01-11T20:33:05.335Z,920.53
2019-01-11T20:35:44.904Z,813.47
2019-01-11T20:38:21.640Z,996.90
2019-01-11T20:41:06.246Z,852.30
2019-01-11T20:44:43.609Z,591.60
2019-01-11T20:50:49.452Z,617.00
2019-01-11T20:53:49.619Z,951.27
2019-01-11T20:57:20.279Z,708.83
2019-01-11T21:00:12.716Z,872.77
2019-01-11T21:03:31.424Z,952.90
2019-01-11T21:06:24.160Z,448.10
2019-01-11T21:09:26.005Z,498.00
2019-01-11T21:14:35.720Z,169.13
2019-01-11T21:17:38.502Z,40.17
2019-01-11T21:20:47.893Z,45.37
2019-01-11T21:23:48.895Z,337.63
2019-01-11T21:26:55.195Z,686.03
2019-01-11T21:30:01.357Z,580.20
2019-01-11T21:33:22.342Z,258.13
2019-01-11T21:37:14.484Z,45.37
2019-01-11T21:39:41.337Z,59.20
2019-01-11T21:42:28.974Z,172.87
2019-01-11T21:45:18.547Z,152.40
2019-01-11T21:48:27.435Z,331.53
2019-01-11T21:51:51.487Z,89.80
2019-01-11T21:54:49.860Z,216.00
2019-01-11T21:57:31.800Z,40.43
2019-01-11T22:01:01.769Z,42.63
2019-01-11T22:04:21.175Z,188.27
2019-01-11T22:06:58.655Z,243.67
2019-01-11T22:10:15.828Z,30.73
2019-01-11T22:13:09.781Z,33.07
2019-01-11T22:22:47.833Z,230.63
2019-01-11T22:25:36.331Z,204.63
2019-01-11T22:28:24.671Z,101.73
2019-01-11T22:31:37.746Z,372.27
2019-01-11T22:34:28.661Z,236.53
2019-01-11T22:37:21.608Z,63.03
2019-01-11T22:39:58.774Z,29.93
2019-01-11T22:45:40.197Z,35.00
2019-01-11T22:48:20.862Z,28.73
2019-01-11T22:51:33.424Z,24.80
2019-01-11T22:54:10.201Z,24.47
2019-01-11T22:56:46.613Z,18.73
2019-01-11T22:59:23.284Z,26.00
2019-01-11T23:02:43.148Z,23.00
2019-01-11T23:05:17.614Z,36.97
2019-01-11T23:07:57.858Z,21.03
2019-01-11T23:11:14.080Z,76.40
2019-01-11T23:14:03.172Z,45.97
2019-01-11T23:17:14.496Z,22.90
2019-01-11T23:20:18.014Z,24.40
2019-01-11T23:22:50.828Z,16.60
2019-01-11T23:25:26.891Z,22.70
2019-01-11T23:27:58.074Z,14.23
2019-01-11T23:30:28.076Z,176.43
2019-01-11T23:32:58.262Z,19.20
2019-01-11T23:35:27.962Z,56.47
2019-01-11T23:37:57.659Z,299.83
2019-01-11T23:40:28.299Z,164.30
2019-01-11T23:43:03.224Z,239.27
2019-01-11T23:45:32.760Z,243.87
2019-01-11T23:48:03.588Z,94.13
2019-01-11T23:50:35.874Z,549.40
2019-01-11T23:53:08.540Z,429.33
2019-01-11T23:55:50.406Z,480.70
2019-01-11T23:58:19.931Z,866.03
